sensor_id;sensor_type;location;lat;lon;timestamp;P1;durP1;ratioP1;P2;durP2;ratioP2
72373;SDS011;60349;64.132;-21.820;2023-04-30T00:02:02;3.53;;;0.75;;
72373;SDS011;60349;64.132;-21.820;2023-04-30T00:04:28;2.75;;;0.80;;
72373;SDS011;60349;64.132;-21.820;2023-04-30T00:06:54;6.53;;;3.00;;
72373;SDS011;60349;64.132;-21.820;2023-04-30T00:09:20;7.75;;;3.58;;
72373;SDS011;60349;64.132;-21.820;2023-04-30T00:11:46;5.82;;;3.00;;
72373;SDS011;60349;64.132;-21.820;2023-04-30T00:14:12;6.20;;;2.65;;
72373;SDS011;60349;64.132;-21.820;2023-04-30T00:16:38;5.13;;;2.28;;
72373;SDS011;60349;64.132;-21.820;2023-04-30T00:19:05;5.45;;;2.17;;
72373;SDS011;60349;64.132;-21.820;2023-04-30T00:21:31;5.03;;;2.38;;
72373;SDS011;60349;64.132;-21.820;2023-04-30T00:23:57;5.45;;;1.88;;
72373;SDS011;60349;64.132;-21.820;2023-04-30T00:26:26;4.28;;;1.58;;
72373;SDS011;60349;64.132;-21.820;2023-04-30T00:28:53;4.43;;;1.58;;
72373;SDS011;60349;64.132;-21.820;2023-04-30T00:31:19;3.22;;;1.08;;
72373;SDS011;60349;64.132;-21.820;2023-04-30T00:33:45;4.75;;;1.33;;
72373;SDS011;60349;64.132;-21.820;2023-04-30T00:36:11;2.60;;;1.17;;
72373;SDS011;60349;64.132;-21.820;2023-04-30T00:38:37;4.28;;;1.33;;
72373;SDS011;60349;64.132;-21.820;2023-04-30T00:41:04;13.75;;;1.90;;
72373;SDS011;60349;64.132;-21.820;2023-04-30T00:43:30;3.40;;;0.82;;
72373;SDS011;60349;64.132;-21.820;2023-04-30T00:45:58;3.38;;;0.90;;
72373;SDS011;60349;64.132;-21.820;2023-04-30T00:48:24;5.95;;;1.13;;
72373;SDS011;60349;64.132;-21.820;2023-04-30T00:50:50;3.05;;;0.82;;
72373;SDS011;60349;64.132;-21.820;2023-04-30T00:53:17;2.30;;;0.52;;
72373;SDS011;60349;64.132;-21.820;2023-04-30T00:55:44;2.78;;;0.88;;
72373;SDS011;60349;64.132;-21.820;2023-04-30T00:58:10;2.22;;;0.65;;
72373;SDS011;60349;64.132;-21.820;2023-04-30T01:00:36;3.05;;;0.93;;
72373;SDS011;60349;64.132;-21.820;2023-04-30T01:03:02;3.08;;;0.77;;
72373;SDS011;60349;64.132;-21.820;2023-04-30T01:05:28;6.90;;;1.02;;
72373;SDS011;60349;64.132;-21.820;2023-04-30T01:07:55;2.65;;;0.60;;
72373;SDS011;60349;64.132;-21.820;2023-04-30T01:10:21;4.57;;;0.98;;
72373;SDS011;60349;64.132;-21.820;2023-04-30T01:12:49;5.25;;;0.60;;
72373;SDS011;60349;64.132;-21.820;2023-04-30T01:17:58;3.70;;;0.73;;
72373;SDS011;60349;64.132;-21.820;2023-04-30T01:20:28;2.85;;;0.40;;
72373;SDS011;60349;64.132;-21.820;2023-04-30T01:28:06;2.97;;;0.47;;
72373;SDS011;60349;64.132;-21.820;2023-04-30T01:30:33;5.18;;;0.43;;
72373;SDS011;60349;64.132;-21.820;2023-04-30T01:33:00;2.80;;;0.45;;
72373;SDS011;60349;64.132;-21.820;2023-04-30T01:35:32;1.40;;;0.25;;
72373;SDS011;60349;64.132;-21.820;2023-04-30T01:40:42;2.22;;;0.30;;
72373;SDS011;60349;64.132;-21.820;2023-04-30T01:50:50;1.00;;;0.30;;
72373;SDS011;60349;64.132;-21.820;2023-04-30T01:53:20;2.28;;;0.28;;
72373;SDS011;60349;64.132;-21.820;2023-04-30T01:55:51;1.05;;;0.20;;
72373;SDS011;60349;64.132;-21.820;2023-04-30T01:58:19;1.30;;;0.20;;
72373;SDS011;60349;64.132;-21.820;2023-04-30T02:00:47;1.02;;;0.10;;
72373;SDS011;60349;64.132;-21.820;2023-04-30T02:03:13;0.88;;;0.13;;
72373;SDS011;60349;64.132;-21.820;2023-04-30T02:05:39;1.02;;;0.10;;
72373;SDS011;60349;64.132;-21.820;2023-04-30T02:08:06;1.85;;;0.15;;
72373;SDS011;60349;64.132;-21.820;2023-04-30T02:10:32;1.02;;;0.10;;
72373;SDS011;60349;64.132;-21.820;2023-04-30T02:12:58;0.90;;;0.10;;
72373;SDS011;60349;64.132;-21.820;2023-04-30T02:15:24;1.83;;;0.10;;
72373;SDS011;60349;64.132;-21.820;2023-04-30T02:17:51;1.38;;;0.10;;
72373;SDS011;60349;64.132;-21.820;2023-04-30T02:20:17;1.38;;;0.10;;
72373;SDS011;60349;64.132;-21.820;2023-04-30T02:22:43;0.98;;;0.10;;
72373;SDS011;60349;64.132;-21.820;2023-04-30T02:25:09;1.23;;;0.10;;
72373;SDS011;60349;64.132;-21.820;2023-04-30T02:27:36;0.60;;;0.10;;
72373;SDS011;60349;64.132;-21.820;2023-04-30T02:30:03;1.23;;;0.40;;
72373;SDS011;60349;64.132;-21.820;2023-04-30T02:32:30;2.72;;;0.20;;
72373;SDS011;60349;64.132;-21.820;2023-04-30T02:34:56;1.42;;;0.10;;
72373;SDS011;60349;64.132;-21.820;2023-04-30T02:37:22;1.95;;;0.15;;
72373;SDS011;60349;64.132;-21.820;2023-04-30T02:39:49;1.25;;;0.10;;
72373;SDS011;60349;64.132;-21.820;2023-04-30T02:42:15;1.50;;;0.10;;
72373;SDS011;60349;64.132;-21.820;2023-04-30T02:44:41;1.42;;;0.10;;
72373;SDS011;60349;64.132;-21.820;2023-04-30T02:47:08;2.13;;;0.10;;
72373;SDS011;60349;64.132;-21.820;2023-04-30T02:49:34;0.93;;;0.10;;
72373;SDS011;60349;64.132;-21.820;2023-04-30T02:52:00;1.27;;;0.40;;
72373;SDS011;60349;64.132;-21.820;2023-04-30T02:54:27;0.90;;;0.45;;
72373;SDS011;60349;64.132;-21.820;2023-04-30T02:56:53;2.40;;;0.10;;
72373;SDS011;60349;64.132;-21.820;2023-04-30T02:59:19;2.22;;;0.10;;
72373;SDS011;60349;64.132;-21.820;2023-04-30T03:01:45;2.05;;;0.35;;
72373;SDS011;60349;64.132;-21.820;2023-04-30T03:04:11;0.52;;;0.10;;
72373;SDS011;60349;64.132;-21.820;2023-04-30T03:06:37;1.08;;;0.10;;
72373;SDS011;60349;64.132;-21.820;2023-04-30T03:09:03;0.47;;;0.10;;
72373;SDS011;60349;64.132;-21.820;2023-04-30T03:11:30;1.40;;;0.10;;
72373;SDS011;60349;64.132;-21.820;2023-04-30T03:13:56;0.95;;;0.10;;
72373;SDS011;60349;64.132;-21.820;2023-04-30T03:16:22;1.92;;;0.10;;
72373;SDS011;60349;64.132;-21.820;2023-04-30T03:18:48;0.47;;;0.10;;
72373;SDS011;60349;64.132;-21.820;2023-04-30T03:21:15;1.65;;;0.10;;
72373;SDS011;60349;64.132;-21.820;2023-04-30T03:23:41;1.15;;;0.10;;
72373;SDS011;60349;64.132;-21.820;2023-04-30T03:26:07;1.08;;;0.10;;
72373;SDS011;60349;64.132;-21.820;2023-04-30T03:28:33;0.50;;;0.10;;
72373;SDS011;60349;64.132;-21.820;2023-04-30T03:31:00;0.52;;;0.00;;
72373;SDS011;60349;64.132;-21.820;2023-04-30T03:33:29;1.20;;;0.20;;
72373;SDS011;60349;64.132;-21.820;2023-04-30T03:35:55;0.80;;;0.00;;
72373;SDS011;60349;64.132;-21.820;2023-04-30T03:38:21;3.03;;;0.55;;
72373;SDS011;60349;64.132;-21.820;2023-04-30T03:40:48;0.70;;;0.10;;
72373;SDS011;60349;64.132;-21.820;2023-04-30T03:43:14;2.50;;;0.10;;
72373;SDS011;60349;64.132;-21.820;2023-04-30T03:45:40;3.17;;;0.10;;
72373;SDS011;60349;64.132;-21.820;2023-04-30T03:48:06;2.25;;;0.10;;
72373;SDS011;60349;64.132;-21.820;2023-04-30T03:50:32;0.60;;;0.03;;
72373;SDS011;60349;64.132;-21.820;2023-04-30T03:52:58;0.70;;;0.10;;
72373;SDS011;60349;64.132;-21.820;2023-04-30T03:55:24;1.80;;;0.08;;
72373;SDS011;60349;64.132;-21.820;2023-04-30T03:57:50;1.17;;;0.10;;
72373;SDS011;60349;64.132;-21.820;2023-04-30T04:00:17;2.90;;;0.30;;
72373;SDS011;60349;64.132;-21.820;2023-04-30T04:02:43;1.05;;;0.10;;
72373;SDS011;60349;64.132;-21.820;2023-04-30T04:05:09;0.70;;;0.10;;
72373;SDS011;60349;64.132;-21.820;2023-04-30T04:07:35;1.13;;;0.00;;
72373;SDS011;60349;64.132;-21.820;2023-04-30T04:10:01;1.45;;;0.10;;
72373;SDS011;60349;64.132;-21.820;2023-04-30T04:12:27;2.00;;;0.10;;
72373;SDS011;60349;64.132;-21.820;2023-04-30T04:14:53;3.53;;;0.10;;
72373;SDS011;60349;64.132;-21.820;2023-04-30T04:17:20;1.70;;;0.10;;
72373;SDS011;60349;64.132;-21.820;2023-04-30T04:19:46;1.55;;;0.10;;
72373;SDS011;60349;64.132;-21.820;2023-04-30T04:22:12;2.70;;;0.10;;
72373;SDS011;60349;64.132;-21.820;2023-04-30T04:24:38;1.25;;;0.10;;
72373;SDS011;60349;64.132;-21.820;2023-04-30T04:27:04;1.25;;;0.10;;
72373;SDS011;60349;64.132;-21.820;2023-04-30T04:29:31;1.23;;;0.05;;
72373;SDS011;60349;64.132;-21.820;2023-04-30T04:31:57;3.55;;;0.10;;
72373;SDS011;60349;64.132;-21.820;2023-04-30T04:34:26;2.08;;;0.10;;
72373;SDS011;60349;64.132;-21.820;2023-04-30T04:36:52;0.30;;;0.00;;
72373;SDS011;60349;64.132;-21.820;2023-04-30T04:39:18;1.85;;;0.10;;
72373;SDS011;60349;64.132;-21.820;2023-04-30T04:41:45;1.20;;;0.10;;
72373;SDS011;60349;64.132;-21.820;2023-04-30T04:44:11;1.05;;;0.10;;
72373;SDS011;60349;64.132;-21.820;2023-04-30T04:46:37;0.68;;;0.00;;
72373;SDS011;60349;64.132;-21.820;2023-04-30T04:49:06;0.40;;;0.00;;
72373;SDS011;60349;64.132;-21.820;2023-04-30T04:51:32;0.55;;;0.00;;
72373;SDS011;60349;64.132;-21.820;2023-04-30T04:53:58;1.02;;;0.05;;
72373;SDS011;60349;64.132;-21.820;2023-04-30T04:56:24;0.80;;;0.00;;
72373;SDS011;60349;64.132;-21.820;2023-04-30T04:58:51;1.60;;;0.13;;
72373;SDS011;60349;64.132;-21.820;2023-04-30T05:01:17;0.50;;;0.00;;
72373;SDS011;60349;64.132;-21.820;2023-04-30T05:03:43;0.90;;;0.05;;
72373;SDS011;60349;64.132;-21.820;2023-04-30T05:06:09;0.63;;;0.00;;
72373;SDS011;60349;64.132;-21.820;2023-04-30T05:08:35;1.23;;;0.00;;
72373;SDS011;60349;64.132;-21.820;2023-04-30T05:11:02;2.53;;;0.10;;
72373;SDS011;60349;64.132;-21.820;2023-04-30T05:13:28;0.82;;;0.00;;
72373;SDS011;60349;64.132;-21.820;2023-04-30T05:15:55;0.93;;;0.05;;
72373;SDS011;60349;64.132;-21.820;2023-04-30T05:18:21;0.75;;;0.10;;
72373;SDS011;60349;64.132;-21.820;2023-04-30T05:20:47;1.25;;;0.10;;
72373;SDS011;60349;64.132;-21.820;2023-04-30T05:23:13;1.40;;;0.00;;
72373;SDS011;60349;64.132;-21.820;2023-04-30T05:25:39;1.38;;;0.00;;
72373;SDS011;60349;64.132;-21.820;2023-04-30T05:28:05;1.30;;;0.00;;
72373;SDS011;60349;64.132;-21.820;2023-04-30T05:30:31;1.10;;;0.00;;
72373;SDS011;60349;64.132;-21.820;2023-04-30T05:32:58;2.60;;;0.10;;
72373;SDS011;60349;64.132;-21.820;2023-04-30T05:35:24;0.80;;;0.10;;
72373;SDS011;60349;64.132;-21.820;2023-04-30T05:37:50;0.40;;;0.10;;
72373;SDS011;60349;64.132;-21.820;2023-04-30T05:40:16;0.43;;;0.00;;
72373;SDS011;60349;64.132;-21.820;2023-04-30T05:42:43;1.35;;;0.10;;
72373;SDS011;60349;64.132;-21.820;2023-04-30T05:45:09;2.78;;;0.10;;
72373;SDS011;60349;64.132;-21.820;2023-04-30T05:47:36;0.40;;;0.00;;
72373;SDS011;60349;64.132;-21.820;2023-04-30T05:50:02;1.17;;;0.10;;
72373;SDS011;60349;64.132;-21.820;2023-04-30T05:52:29;0.50;;;0.10;;
72373;SDS011;60349;64.132;-21.820;2023-04-30T05:54:55;0.30;;;0.00;;
72373;SDS011;60349;64.132;-21.820;2023-04-30T05:57:21;0.40;;;0.10;;
72373;SDS011;60349;64.132;-21.820;2023-04-30T05:59:47;0.50;;;0.10;;
72373;SDS011;60349;64.132;-21.820;2023-04-30T06:02:13;2.05;;;0.10;;
72373;SDS011;60349;64.132;-21.820;2023-04-30T06:04:40;0.82;;;0.10;;
72373;SDS011;60349;64.132;-21.820;2023-04-30T06:07:06;0.35;;;0.00;;
72373;SDS011;60349;64.132;-21.820;2023-04-30T06:09:32;1.48;;;0.10;;
72373;SDS011;60349;64.132;-21.820;2023-04-30T06:11:58;1.40;;;0.05;;
72373;SDS011;60349;64.132;-21.820;2023-04-30T06:14:26;1.15;;;0.10;;
72373;SDS011;60349;64.132;-21.820;2023-04-30T06:16:52;0.93;;;0.10;;
72373;SDS011;60349;64.132;-21.820;2023-04-30T06:19:18;1.77;;;0.10;;
72373;SDS011;60349;64.132;-21.820;2023-04-30T06:21:45;1.42;;;0.10;;
72373;SDS011;60349;64.132;-21.820;2023-04-30T06:24:11;0.63;;;0.00;;
72373;SDS011;60349;64.132;-21.820;2023-04-30T06:26:37;0.40;;;0.00;;
72373;SDS011;60349;64.132;-21.820;2023-04-30T06:29:03;0.95;;;0.10;;
72373;SDS011;60349;64.132;-21.820;2023-04-30T06:31:29;1.75;;;0.05;;
72373;SDS011;60349;64.132;-21.820;2023-04-30T06:33:55;1.00;;;0.10;;
72373;SDS011;60349;64.132;-21.820;2023-04-30T06:36:21;1.23;;;0.00;;
72373;SDS011;60349;64.132;-21.820;2023-04-30T06:38:47;1.13;;;0.10;;
72373;SDS011;60349;64.132;-21.820;2023-04-30T06:41:14;1.90;;;0.03;;
72373;SDS011;60349;64.132;-21.820;2023-04-30T06:43:40;0.95;;;0.10;;
72373;SDS011;60349;64.132;-21.820;2023-04-30T06:46:06;2.25;;;0.10;;
72373;SDS011;60349;64.132;-21.820;2023-04-30T06:48:32;2.05;;;0.00;;
72373;SDS011;60349;64.132;-21.820;2023-04-30T06:50:58;0.30;;;0.00;;
72373;SDS011;60349;64.132;-21.820;2023-04-30T06:53:25;1.02;;;0.10;;
72373;SDS011;60349;64.132;-21.820;2023-04-30T06:55:51;1.27;;;0.10;;
72373;SDS011;60349;64.132;-21.820;2023-04-30T06:58:17;0.85;;;0.10;;
72373;SDS011;60349;64.132;-21.820;2023-04-30T07:00:43;1.70;;;0.10;;
72373;SDS011;60349;64.132;-21.820;2023-04-30T07:03:10;1.05;;;0.10;;
72373;SDS011;60349;64.132;-21.820;2023-04-30T07:05:36;1.10;;;0.20;;
72373;SDS011;60349;64.132;-21.820;2023-04-30T07:08:03;1.00;;;0.00;;
72373;SDS011;60349;64.132;-21.820;2023-04-30T07:10:30;1.75;;;0.00;;
72373;SDS011;60349;64.132;-21.820;2023-04-30T07:12:56;0.93;;;0.10;;
72373;SDS011;60349;64.132;-21.820;2023-04-30T07:15:23;2.15;;;0.10;;
72373;SDS011;60349;64.132;-21.820;2023-04-30T07:17:49;0.98;;;0.08;;
72373;SDS011;60349;64.132;-21.820;2023-04-30T07:20:15;1.38;;;0.30;;
72373;SDS011;60349;64.132;-21.820;2023-04-30T07:22:42;0.65;;;0.10;;
72373;SDS011;60349;64.132;-21.820;2023-04-30T07:25:09;3.58;;;0.10;;
72373;SDS011;60349;64.132;-21.820;2023-04-30T07:27:36;1.23;;;0.05;;
72373;SDS011;60349;64.132;-21.820;2023-04-30T07:30:02;1.90;;;0.10;;
72373;SDS011;60349;64.132;-21.820;2023-04-30T07:32:29;1.77;;;0.08;;
72373;SDS011;60349;64.132;-21.820;2023-04-30T07:34:55;2.40;;;0.00;;
72373;SDS011;60349;64.132;-21.820;2023-04-30T07:37:22;0.57;;;0.08;;
72373;SDS011;60349;64.132;-21.820;2023-04-30T07:39:48;3.17;;;0.10;;
72373;SDS011;60349;64.132;-21.820;2023-04-30T07:42:14;1.98;;;0.10;;
72373;SDS011;60349;64.132;-21.820;2023-04-30T07:44:40;2.17;;;0.10;;
72373;SDS011;60349;64.132;-21.820;2023-04-30T07:47:06;0.82;;;0.25;;
72373;SDS011;60349;64.132;-21.820;2023-04-30T07:49:34;0.98;;;0.17;;
72373;SDS011;60349;64.132;-21.820;2023-04-30T07:52:00;1.13;;;0.00;;
72373;SDS011;60349;64.132;-21.820;2023-04-30T07:54:26;0.93;;;0.10;;
72373;SDS011;60349;64.132;-21.820;2023-04-30T07:56:52;1.00;;;0.03;;
72373;SDS011;60349;64.132;-21.820;2023-04-30T07:59:18;0.60;;;0.00;;
72373;SDS011;60349;64.132;-21.820;2023-04-30T08:01:49;6.85;;;0.63;;
72373;SDS011;60349;64.132;-21.820;2023-04-30T08:04:15;1.02;;;0.20;;
72373;SDS011;60349;64.132;-21.820;2023-04-30T08:06:41;1.17;;;0.10;;
72373;SDS011;60349;64.132;-21.820;2023-04-30T08:09:07;1.20;;;0.10;;
72373;SDS011;60349;64.132;-21.820;2023-04-30T08:11:33;3.00;;;0.10;;
72373;SDS011;60349;64.132;-21.820;2023-04-30T08:13:59;1.52;;;0.00;;
72373;SDS011;60349;64.132;-21.820;2023-04-30T08:16:25;3.50;;;0.10;;
72373;SDS011;60349;64.132;-21.820;2023-04-30T08:18:52;1.58;;;0.00;;
72373;SDS011;60349;64.132;-21.820;2023-04-30T08:21:18;2.58;;;0.10;;
72373;SDS011;60349;64.132;-21.820;2023-04-30T08:23:44;2.58;;;0.10;;
72373;SDS011;60349;64.132;-21.820;2023-04-30T08:26:10;1.38;;;0.10;;
72373;SDS011;60349;64.132;-21.820;2023-04-30T08:28:36;0.95;;;0.10;;
72373;SDS011;60349;64.132;-21.820;2023-04-30T08:31:02;1.70;;;0.10;;
72373;SDS011;60349;64.132;-21.820;2023-04-30T08:33:28;1.08;;;0.10;;
72373;SDS011;60349;64.132;-21.820;2023-04-30T08:35:56;1.77;;;0.10;;
72373;SDS011;60349;64.132;-21.820;2023-04-30T08:38:23;3.05;;;0.25;;
72373;SDS011;60349;64.132;-21.820;2023-04-30T08:40:55;2.15;;;0.47;;
72373;SDS011;60349;64.132;-21.820;2023-04-30T08:43:21;0.90;;;0.10;;
72373;SDS011;60349;64.132;-21.820;2023-04-30T08:45:48;0.70;;;0.10;;
72373;SDS011;60349;64.132;-21.820;2023-04-30T08:48:16;1.20;;;0.15;;
72373;SDS011;60349;64.132;-21.820;2023-04-30T08:50:43;1.00;;;0.10;;
72373;SDS011;60349;64.132;-21.820;2023-04-30T08:53:10;1.00;;;0.00;;
72373;SDS011;60349;64.132;-21.820;2023-04-30T08:55:39;0.73;;;0.00;;
72373;SDS011;60349;64.132;-21.820;2023-04-30T08:58:06;1.80;;;0.10;;
72373;SDS011;60349;64.132;-21.820;2023-04-30T09:00:32;1.90;;;0.38;;
72373;SDS011;60349;64.132;-21.820;2023-04-30T09:03:00;1.98;;;0.10;;
72373;SDS011;60349;64.132;-21.820;2023-04-30T09:05:26;2.08;;;0.10;;
72373;SDS011;60349;64.132;-21.820;2023-04-30T09:07:52;1.15;;;0.00;;
72373;SDS011;60349;64.132;-21.820;2023-04-30T09:10:19;1.00;;;0.10;;
72373;SDS011;60349;64.132;-21.820;2023-04-30T09:15:31;3.25;;;0.08;;
72373;SDS011;60349;64.132;-21.820;2023-04-30T09:20:33;0.90;;;0.05;;
72373;SDS011;60349;64.132;-21.820;2023-04-30T09:23:06;1.33;;;0.10;;
72373;SDS011;60349;64.132;-21.820;2023-04-30T09:25:42;0.45;;;0.10;;
72373;SDS011;60349;64.132;-21.820;2023-04-30T09:28:12;1.30;;;0.10;;
72373;SDS011;60349;64.132;-21.820;2023-04-30T09:30:39;0.63;;;0.03;;
72373;SDS011;60349;64.132;-21.820;2023-04-30T09:33:05;2.70;;;0.10;;
72373;SDS011;60349;64.132;-21.820;2023-04-30T09:35:35;5.20;;;0.47;;
72373;SDS011;60349;64.132;-21.820;2023-04-30T09:38:06;4.20;;;0.10;;
72373;SDS011;60349;64.132;-21.820;2023-04-30T09:40:39;1.10;;;0.17;;
72373;SDS011;60349;64.132;-21.820;2023-04-30T09:43:05;2.05;;;0.10;;
72373;SDS011;60349;64.132;-21.820;2023-04-30T09:45:41;1.10;;;0.10;;
72373;SDS011;60349;64.132;-21.820;2023-04-30T09:48:08;0.90;;;0.20;;
72373;SDS011;60349;64.132;-21.820;2023-04-30T09:50:39;3.30;;;0.10;;
72373;SDS011;60349;64.132;-21.820;2023-04-30T09:53:09;0.80;;;0.10;;
72373;SDS011;60349;64.132;-21.820;2023-04-30T09:55:37;1.17;;;0.00;;
72373;SDS011;60349;64.132;-21.820;2023-04-30T09:58:06;0.55;;;0.05;;
72373;SDS011;60349;64.132;-21.820;2023-04-30T10:00:34;1.95;;;0.30;;
72373;SDS011;60349;64.132;-21.820;2023-04-30T10:03:11;1.02;;;0.05;;
72373;SDS011;60349;64.132;-21.820;2023-04-30T10:05:41;4.22;;;0.10;;
72373;SDS011;60349;64.132;-21.820;2023-04-30T10:08:24;1.75;;;0.10;;
72373;SDS011;60349;64.132;-21.820;2023-04-30T10:10:53;1.15;;;0.08;;
72373;SDS011;60349;64.132;-21.820;2023-04-30T10:13:22;0.98;;;0.10;;
72373;SDS011;60349;64.132;-21.820;2023-04-30T10:15:51;0.85;;;0.10;;
72373;SDS011;60349;64.132;-21.820;2023-04-30T10:18:29;3.00;;;0.10;;
72373;SDS011;60349;64.132;-21.820;2023-04-30T10:20:56;2.15;;;0.10;;
72373;SDS011;60349;64.132;-21.820;2023-04-30T10:23:24;2.13;;;0.10;;
72373;SDS011;60349;64.132;-21.820;2023-04-30T10:25:50;2.35;;;0.10;;
72373;SDS011;60349;64.132;-21.820;2023-04-30T10:28:16;1.73;;;0.20;;
72373;SDS011;60349;64.132;-21.820;2023-04-30T10:30:43;1.95;;;0.10;;
72373;SDS011;60349;64.132;-21.820;2023-04-30T10:36:20;0.40;;;0.00;;
72373;SDS011;60349;64.132;-21.820;2023-04-30T10:38:28;3.15;;;0.10;;
72373;SDS011;60349;64.132;-21.820;2023-04-30T10:40:58;0.45;;;0.03;;
72373;SDS011;60349;64.132;-21.820;2023-04-30T10:43:31;1.23;;;0.20;;
72373;SDS011;60349;64.132;-21.820;2023-04-30T10:45:59;2.35;;;0.00;;
72373;SDS011;60349;64.132;-21.820;2023-04-30T10:48:25;2.28;;;0.32;;
72373;SDS011;60349;64.132;-21.820;2023-04-30T10:50:54;0.60;;;0.10;;
72373;SDS011;60349;64.132;-21.820;2023-04-30T10:53:20;0.73;;;0.10;;
72373;SDS011;60349;64.132;-21.820;2023-04-30T10:55:57;1.13;;;0.00;;
72373;SDS011;60349;64.132;-21.820;2023-04-30T10:58:30;0.90;;;0.20;;
72373;SDS011;60349;64.132;-21.820;2023-04-30T11:01:02;1.67;;;0.10;;
72373;SDS011;60349;64.132;-21.820;2023-04-30T11:03:29;1.55;;;0.70;;
72373;SDS011;60349;64.132;-21.820;2023-04-30T11:05:57;2.58;;;0.32;;
72373;SDS011;60349;64.132;-21.820;2023-04-30T11:08:36;0.60;;;0.05;;
72373;SDS011;60349;64.132;-21.820;2023-04-30T11:11:03;0.52;;;0.10;;
72373;SDS011;60349;64.132;-21.820;2023-04-30T11:16:06;0.75;;;0.10;;
72373;SDS011;60349;64.132;-21.820;2023-04-30T11:18:32;1.15;;;0.10;;
72373;SDS011;60349;64.132;-21.820;2023-04-30T11:20:58;0.90;;;0.10;;
72373;SDS011;60349;64.132;-21.820;2023-04-30T11:23:27;1.33;;;0.00;;
72373;SDS011;60349;64.132;-21.820;2023-04-30T11:25:53;1.02;;;0.10;;
72373;SDS011;60349;64.132;-21.820;2023-04-30T11:28:23;0.98;;;0.03;;
72373;SDS011;60349;64.132;-21.820;2023-04-30T11:30:55;0.95;;;0.20;;
72373;SDS011;60349;64.132;-21.820;2023-04-30T11:33:22;2.58;;;0.10;;
72373;SDS011;60349;64.132;-21.820;2023-04-30T11:35:48;5.35;;;0.17;;
72373;SDS011;60349;64.132;-21.820;2023-04-30T11:38:21;5.78;;;0.10;;
72373;SDS011;60349;64.132;-21.820;2023-04-30T11:40:47;3.67;;;0.10;;
72373;SDS011;60349;64.132;-21.820;2023-04-30T11:43:21;3.20;;;0.32;;
72373;SDS011;60349;64.132;-21.820;2023-04-30T11:48:36;1.05;;;0.10;;
72373;SDS011;60349;64.132;-21.820;2023-04-30T11:51:03;3.42;;;0.10;;
72373;SDS011;60349;64.132;-21.820;2023-04-30T11:53:29;2.35;;;0.10;;
72373;SDS011;60349;64.132;-21.820;2023-04-30T11:55:55;3.65;;;0.10;;
72373;SDS011;60349;64.132;-21.820;2023-04-30T11:58:21;1.75;;;0.20;;
72373;SDS011;60349;64.132;-21.820;2023-04-30T12:00:48;0.93;;;0.10;;
72373;SDS011;60349;64.132;-21.820;2023-04-30T12:03:16;2.65;;;0.17;;
72373;SDS011;60349;64.132;-21.820;2023-04-30T12:05:42;11.60;;;5.50;;
72373;SDS011;60349;64.132;-21.820;2023-04-30T12:08:11;24.90;;;12.00;;
72373;SDS011;60349;64.132;-21.820;2023-04-30T12:10:37;35.47;;;16.73;;
72373;SDS011;60349;64.132;-21.820;2023-04-30T12:13:03;52.38;;;24.40;;
72373;SDS011;60349;64.132;-21.820;2023-04-30T12:15:29;38.40;;;18.58;;
72373;SDS011;60349;64.132;-21.820;2023-04-30T12:17:57;41.30;;;20.60;;
72373;SDS011;60349;64.132;-21.820;2023-04-30T12:20:25;56.65;;;26.83;;
72373;SDS011;60349;64.132;-21.820;2023-04-30T12:22:52;53.95;;;27.17;;
72373;SDS011;60349;64.132;-21.820;2023-04-30T12:25:19;46.10;;;24.13;;
72373;SDS011;60349;64.132;-21.820;2023-04-30T12:27:46;46.80;;;22.10;;
72373;SDS011;60349;64.132;-21.820;2023-04-30T12:30:12;34.88;;;15.98;;
72373;SDS011;60349;64.132;-21.820;2023-04-30T12:32:44;32.53;;;15.93;;
72373;SDS011;60349;64.132;-21.820;2023-04-30T12:35:14;28.25;;;13.25;;
72373;SDS011;60349;64.132;-21.820;2023-04-30T12:40:10;17.33;;;8.32;;
72373;SDS011;60349;64.132;-21.820;2023-04-30T12:42:36;15.68;;;6.70;;
72373;SDS011;60349;64.132;-21.820;2023-04-30T12:45:03;13.70;;;6.15;;
72373;SDS011;60349;64.132;-21.820;2023-04-30T12:47:29;16.35;;;6.47;;
72373;SDS011;60349;64.132;-21.820;2023-04-30T12:49:55;12.57;;;3.38;;
72373;SDS011;60349;64.132;-21.820;2023-04-30T12:52:25;7.57;;;3.00;;
72373;SDS011;60349;64.132;-21.820;2023-04-30T12:54:51;8.70;;;2.70;;
72373;SDS011;60349;64.132;-21.820;2023-04-30T12:57:19;8.32;;;2.03;;
72373;SDS011;60349;64.132;-21.820;2023-04-30T13:02:14;5.07;;;1.75;;
72373;SDS011;60349;64.132;-21.820;2023-04-30T13:04:40;4.65;;;1.17;;
72373;SDS011;60349;64.132;-21.820;2023-04-30T13:07:07;6.55;;;2.03;;
72373;SDS011;60349;64.132;-21.820;2023-04-30T13:09:33;3.92;;;1.40;;
72373;SDS011;60349;64.132;-21.820;2023-04-30T13:12:00;4.07;;;1.23;;
72373;SDS011;60349;64.132;-21.820;2023-04-30T13:14:26;3.33;;;0.90;;
72373;SDS011;60349;64.132;-21.820;2023-04-30T13:16:52;5.93;;;1.05;;
72373;SDS011;60349;64.132;-21.820;2023-04-30T13:19:18;4.45;;;0.90;;
72373;SDS011;60349;64.132;-21.820;2023-04-30T13:21:45;4.80;;;1.15;;
72373;SDS011;60349;64.132;-21.820;2023-04-30T13:24:11;3.90;;;0.70;;
72373;SDS011;60349;64.132;-21.820;2023-04-30T13:26:37;5.55;;;0.93;;
72373;SDS011;60349;64.132;-21.820;2023-04-30T13:29:04;5.25;;;0.50;;
72373;SDS011;60349;64.132;-21.820;2023-04-30T13:31:31;2.90;;;0.45;;
72373;SDS011;60349;64.132;-21.820;2023-04-30T13:33:57;1.98;;;0.55;;
72373;SDS011;60349;64.132;-21.820;2023-04-30T13:36:23;27.13;;;11.10;;
72373;SDS011;60349;64.132;-21.820;2023-04-30T13:38:50;30.23;;;16.50;;
72373;SDS011;60349;64.132;-21.820;2023-04-30T13:41:16;42.28;;;20.85;;
72373;SDS011;60349;64.132;-21.820;2023-04-30T13:43:42;31.38;;;15.15;;
72373;SDS011;60349;64.132;-21.820;2023-04-30T13:46:08;31.02;;;15.07;;
72373;SDS011;60349;64.132;-21.820;2023-04-30T13:48:34;24.90;;;12.52;;
72373;SDS011;60349;64.132;-21.820;2023-04-30T13:51:00;19.63;;;9.38;;
72373;SDS011;60349;64.132;-21.820;2023-04-30T13:53:27;21.92;;;10.88;;
72373;SDS011;60349;64.132;-21.820;2023-04-30T13:55:53;25.23;;;12.15;;
72373;SDS011;60349;64.132;-21.820;2023-04-30T13:58:19;21.65;;;11.07;;
72373;SDS011;60349;64.132;-21.820;2023-04-30T14:00:45;20.38;;;9.90;;
72373;SDS011;60349;64.132;-21.820;2023-04-30T14:03:11;12.82;;;6.88;;
72373;SDS011;60349;64.132;-21.820;2023-04-30T14:05:38;10.55;;;5.45;;
72373;SDS011;60349;64.132;-21.820;2023-04-30T14:08:04;10.85;;;5.38;;
72373;SDS011;60349;64.132;-21.820;2023-04-30T14:10:31;9.30;;;4.22;;
72373;SDS011;60349;64.132;-21.820;2023-04-30T14:12:57;8.75;;;4.15;;
72373;SDS011;60349;64.132;-21.820;2023-04-30T14:15:23;7.00;;;2.38;;
72373;SDS011;60349;64.132;-21.820;2023-04-30T14:17:50;5.57;;;1.63;;
72373;SDS011;60349;64.132;-21.820;2023-04-30T14:20:16;5.25;;;2.42;;
72373;SDS011;60349;64.132;-21.820;2023-04-30T14:22:43;4.38;;;1.52;;
72373;SDS011;60349;64.132;-21.820;2023-04-30T14:25:09;4.85;;;1.25;;
72373;SDS011;60349;64.132;-21.820;2023-04-30T14:27:35;5.70;;;1.50;;
72373;SDS011;60349;64.132;-21.820;2023-04-30T14:30:02;5.03;;;1.13;;
72373;SDS011;60349;64.132;-21.820;2023-04-30T14:32:28;3.13;;;0.50;;
72373;SDS011;60349;64.132;-21.820;2023-04-30T14:34:54;2.03;;;0.30;;
72373;SDS011;60349;64.132;-21.820;2023-04-30T14:37:20;2.90;;;0.30;;
72373;SDS011;60349;64.132;-21.820;2023-04-30T14:39:47;2.38;;;0.52;;
72373;SDS011;60349;64.132;-21.820;2023-04-30T14:42:14;1.20;;;0.20;;
72373;SDS011;60349;64.132;-21.820;2023-04-30T14:44:40;1.52;;;0.20;;
72373;SDS011;60349;64.132;-21.820;2023-04-30T14:47:06;2.90;;;0.17;;
72373;SDS011;60349;64.132;-21.820;2023-04-30T14:49:32;3.78;;;0.20;;
72373;SDS011;60349;64.132;-21.820;2023-04-30T14:51:59;1.00;;;0.15;;
72373;SDS011;60349;64.132;-21.820;2023-04-30T14:54:25;4.05;;;0.20;;